createdAt,value
2023-03-18T00:02:25.271Z,97293.13
2023-03-18T00:04:53.022Z,97290.50
2023-03-18T00:07:19.880Z,97303.25
2023-03-18T00:09:49.462Z,97308.59
2023-03-18T00:12:17.287Z,97306.72
2023-03-18T00:14:43.939Z,97313.34
2023-03-18T00:17:10.875Z,97313.97
2023-03-18T00:19:38.190Z,97318.09
2023-03-18T00:22:04.907Z,97327.22
2023-03-18T00:24:32.858Z,97324.88
2023-03-18T00:26:59.540Z,97327.38
2023-03-18T00:29:26.186Z,97321.09
2023-03-18T00:31:52.792Z,97320.91
2023-03-18T00:34:21.032Z,97329.44
2023-03-18T00:36:50.900Z,97326.75
2023-03-18T00:39:22.790Z,97338.09
2023-03-18T00:41:50.791Z,97339.38
2023-03-18T00:44:17.960Z,97335.72
2023-03-18T00:46:44.583Z,97335.72
2023-03-18T00:49:11.270Z,97339.84
2023-03-18T00:51:38.647Z,97341.09
2023-03-18T00:54:08.353Z,97345.22
2023-03-18T00:56:37.750Z,97341.28
2023-03-18T00:59:06.131Z,97353.88
2023-03-18T01:01:33.585Z,97364.13
2023-03-18T01:04:01.498Z,97358.94
2023-03-18T01:06:31.479Z,97361.59
2023-03-18T01:09:00.291Z,97355.63
2023-03-18T01:11:27.993Z,97345.03
2023-03-18T01:13:57.241Z,97351.66
2023-03-18T01:16:24.244Z,97333.22
2023-03-18T01:18:53.807Z,97331.00
2023-03-18T01:21:20.521Z,97328.16
2023-03-18T01:23:47.264Z,97326.91
2023-03-18T01:26:14.406Z,97327.53
2023-03-18T01:28:42.337Z,97320.59
2023-03-18T01:31:09.755Z,97320.78
2023-03-18T01:33:36.860Z,97313.34
2023-03-18T01:36:05.102Z,97313.03
2023-03-18T01:38:32.259Z,97306.72
2023-03-18T01:41:02.042Z,97308.91
2023-03-18T01:43:34.820Z,97308.28
2023-03-18T01:46:23.298Z,97304.81
2023-03-18T01:48:52.131Z,97305.78
2023-03-18T01:51:20.290Z,97298.66
2023-03-18T01:53:51.224Z,97299.31
2023-03-18T01:56:20.670Z,97314.28
2023-03-18T01:58:51.237Z,97305.13
2023-03-18T02:01:28.861Z,97309.88
2023-03-18T02:03:56.657Z,97315.84
2023-03-18T02:06:24.481Z,97313.66
2023-03-18T02:08:52.316Z,97309.25
2023-03-18T02:11:19.182Z,97300.72
2023-03-18T02:13:46.853Z,97299.16
2023-03-18T02:16:20.308Z,97285.13
2023-03-18T02:18:54.854Z,97298.84
2023-03-18T02:21:21.536Z,97310.50
2023-03-18T02:24:28.445Z,97301.34
2023-03-18T02:27:01.820Z,97278.00
2023-03-18T02:29:32.574Z,97278.34
2023-03-18T02:32:03.163Z,97279.75
2023-03-18T02:34:30.965Z,97284.03
2023-03-18T02:36:58.068Z,97283.41
2023-03-18T02:39:26.434Z,97284.19
2023-03-18T02:41:53.304Z,97283.09
2023-03-18T02:44:21.347Z,97290.66
2023-03-18T02:47:04.197Z,97299.81
2023-03-18T02:49:32.801Z,97284.84
2023-03-18T02:52:01.395Z,97285.78
2023-03-18T02:54:30.596Z,97276.94
2023-03-18T02:56:57.908Z,97284.34
2023-03-18T02:59:25.603Z,97279.00
2023-03-18T03:01:53.803Z,97289.25
2023-03-18T03:04:23.701Z,97283.72
2023-03-18T03:06:54.859Z,97268.75
2023-03-18T03:09:22.700Z,97279.78
2023-03-18T03:11:50.810Z,97269.19
2023-03-18T03:14:19.241Z,97264.63
2023-03-18T03:16:47.817Z,97247.75
2023-03-18T03:19:16.858Z,97256.25
2023-03-18T03:21:43.466Z,97267.78
2023-03-18T03:24:10.263Z,97271.72
2023-03-18T03:26:36.968Z,97273.31
2023-03-18T03:29:05.120Z,97280.28
2023-03-18T03:31:31.902Z,97277.44
2023-03-18T03:33:58.925Z,97279.00
2023-03-18T03:36:25.926Z,97278.22
2023-03-18T03:38:54.209Z,97276.16
2023-03-18T03:41:21.000Z,97294.47
2023-03-18T03:43:47.694Z,97290.22
2023-03-18T03:46:14.425Z,97296.38
2023-03-18T03:48:41.350Z,97285.63
2023-03-18T03:51:08.142Z,97281.53
2023-03-18T03:53:36.163Z,97275.53
2023-03-18T03:56:05.422Z,97278.69
2023-03-18T03:58:32.026Z,97282.78
2023-03-18T04:00:58.710Z,97283.25
2023-03-18T04:03:25.768Z,97286.56
2023-03-18T04:05:52.891Z,97288.78
2023-03-18T04:08:19.929Z,97285.63
2023-03-18T04:10:46.964Z,97283.59
2023-03-18T04:13:13.713Z,97277.91
2023-03-18T04:15:40.318Z,97279.00
2023-03-18T04:18:08.317Z,97269.06
2023-03-18T04:20:38.355Z,97266.53
2023-03-18T04:23:06.134Z,97268.28
2023-03-18T04:25:33.297Z,97272.84
2023-03-18T04:28:00.013Z,97274.59
2023-03-18T04:30:27.475Z,97273.00
2023-03-18T04:32:56.208Z,97273.63
2023-03-18T04:35:26.169Z,97270.94
2023-03-18T04:37:55.603Z,97260.69
2023-03-18T04:40:22.260Z,97259.91
2023-03-18T04:42:49.102Z,97264.66
2023-03-18T04:45:17.867Z,97262.75
2023-03-18T04:47:45.319Z,97262.28
2023-03-18T04:50:14.439Z,97260.38
2023-03-18T04:52:42.084Z,97262.91
2023-03-18T04:55:09.725Z,97266.06
2023-03-18T04:57:38.499Z,97270.81
2023-03-18T05:00:11.595Z,97266.06
2023-03-18T05:02:39.885Z,97259.28
2023-03-18T05:05:08.870Z,97259.59
2023-03-18T05:07:35.593Z,97247.44
2023-03-18T05:10:03.140Z,97237.66
2023-03-18T05:12:29.738Z,97233.06
2023-03-18T05:14:56.413Z,97227.38
2023-03-18T05:17:23.066Z,97223.94
2023-03-18T05:19:50.503Z,97196.63
2023-03-18T05:22:19.330Z,97124.09
2023-03-18T05:24:46.713Z,97077.22
2023-03-18T05:27:15.326Z,97046.44
2023-03-18T05:29:42.509Z,96975.97
2023-03-18T05:32:10.618Z,96934.50
2023-03-18T05:34:40.050Z,96877.53
2023-03-18T05:37:08.754Z,96868.47
2023-03-18T05:39:36.129Z,96838.09
2023-03-18T05:42:05.892Z,96819.19
2023-03-18T05:44:33.996Z,96808.59
2023-03-18T05:47:01.661Z,96795.34
2023-03-18T05:49:29.758Z,96755.47
2023-03-18T05:51:57.033Z,96748.66
2023-03-18T05:54:23.945Z,96714.91
2023-03-18T05:56:52.494Z,96684.13
2023-03-18T05:59:20.024Z,96657.91
2023-03-18T06:01:47.021Z,96626.59
2023-03-18T06:04:14.898Z,96606.97
2023-03-18T06:06:42.163Z,96595.00
2023-03-18T06:09:11.865Z,96588.50
2023-03-18T06:11:40.209Z,96565.16
2023-03-18T06:14:08.326Z,96540.81
2023-03-18T06:16:35.804Z,96535.06
2023-03-18T06:19:03.525Z,96527.28
2023-03-18T06:21:33.001Z,96511.84
2023-03-18T06:24:00.199Z,96514.19
2023-03-18T06:26:27.709Z,96482.34
2023-03-18T06:28:54.610Z,96469.38
2023-03-18T06:31:22.485Z,96449.03
2023-03-18T06:33:49.216Z,96426.00
2023-03-18T06:36:19.422Z,96394.13
2023-03-18T06:38:46.214Z,96433.00
2023-03-18T06:41:13.304Z,96426.44
2023-03-18T06:43:39.960Z,96418.72
2023-03-18T06:46:07.800Z,96413.78
2023-03-18T06:48:36.411Z,96419.50
2023-03-18T06:51:05.128Z,96440.97
2023-03-18T06:53:31.989Z,96437.81
2023-03-18T06:55:59.109Z,96456.81
2023-03-18T06:58:26.011Z,96453.69
2023-03-18T07:00:52.832Z,96447.00
2023-03-18T07:03:21.703Z,96437.56
2023-03-18T07:05:50.049Z,96441.84
2023-03-18T07:08:16.927Z,96429.06
2023-03-18T07:10:43.628Z,96447.84
2023-03-18T07:13:11.918Z,96464.09
2023-03-18T07:15:40.347Z,96460.59
2023-03-18T07:18:09.835Z,96456.78
2023-03-18T07:20:40.395Z,96455.00
2023-03-18T07:23:09.590Z,96445.91
2023-03-18T07:25:36.731Z,96452.78
2023-03-18T07:28:06.389Z,96445.84
2023-03-18T07:30:34.075Z,96429.81
2023-03-18T07:33:02.519Z,96453.56
2023-03-18T07:35:29.287Z,96452.78
2023-03-18T07:37:56.873Z,96451.03
2023-03-18T07:40:24.348Z,96445.66
2023-03-18T07:42:54.137Z,96428.88
2023-03-18T07:45:20.888Z,96420.03
2023-03-18T07:47:47.616Z,96412.50
2023-03-18T07:50:14.417Z,96402.72
2023-03-18T07:52:41.949Z,96412.63
2023-03-18T07:55:09.271Z,96395.88
2023-03-18T07:57:36.727Z,96376.56
2023-03-18T08:00:08.119Z,96379.28
2023-03-18T08:02:36.176Z,96396.84
2023-03-18T08:05:03.692Z,96385.81
2023-03-18T08:07:30.730Z,96371.72
2023-03-18T08:09:57.337Z,96382.69
2023-03-18T08:12:25.239Z,96368.63
2023-03-18T08:14:52.239Z,96375.97
2023-03-18T08:17:19.966Z,96365.44
2023-03-18T08:19:50.072Z,96349.88
2023-03-18T08:22:17.012Z,96362.69
2023-03-18T08:24:46.659Z,96344.69
2023-03-18T08:27:13.333Z,96344.88
2023-03-18T08:29:41.455Z,96354.53
2023-03-18T08:32:08.410Z,96339.66
2023-03-18T08:34:35.942Z,96350.06
2023-03-18T08:37:02.812Z,96354.50
2023-03-18T08:39:29.441Z,96342.03
2023-03-18T08:41:57.943Z,96370.00
2023-03-18T08:44:24.733Z,96368.03
2023-03-18T08:46:52.674Z,96372.97
2023-03-18T08:49:19.781Z,96402.84
2023-03-18T08:51:48.203Z,96406.03
2023-03-18T08:54:14.828Z,96410.56
2023-03-18T08:56:41.420Z,96403.00
2023-03-18T08:59:08.515Z,96393.41
2023-03-18T09:01:35.190Z,96398.97
2023-03-18T09:04:01.875Z,96410.91
2023-03-18T09:06:30.041Z,96402.63
2023-03-18T09:08:58.786Z,96419.88
2023-03-18T09:11:25.425Z,96421.66
2023-03-18T09:13:52.350Z,96404.97
2023-03-18T09:16:19.057Z,96433.31
2023-03-18T09:18:48.699Z,96448.34
2023-03-18T09:21:15.554Z,96448.16
2023-03-18T09:23:42.172Z,96446.59
2023-03-18T09:26:10.284Z,96428.78
2023-03-18T09:28:37.288Z,96439.34
2023-03-18T09:31:04.114Z,96428.78
2023-03-18T09:33:31.869Z,96439.72
2023-03-18T09:35:58.497Z,96450.09
2023-03-18T09:38:25.159Z,96443.75
2023-03-18T09:41:10.129Z,96460.78
2023-03-18T09:43:46.982Z,96457.03
2023-03-18T09:46:23.418Z,96444.25
2023-03-18T09:49:16.733Z,96463.28
2023-03-18T09:52:02.178Z,96451.94
2023-03-18T09:54:39.684Z,96455.63
2023-03-18T09:57:21.013Z,96461.81
2023-03-18T09:59:54.828Z,96451.63
2023-03-18T10:02:40.095Z,96464.84
2023-03-18T10:05:16.823Z,96451.81
2023-03-18T10:07:44.989Z,96457.63
2023-03-18T10:10:40.095Z,96467.28
2023-03-18T10:13:26.524Z,96460.22
2023-03-18T10:15:57.052Z,96488.09
2023-03-18T10:18:33.475Z,96483.50
2023-03-18T10:21:10.338Z,96485.66
2023-03-18T10:23:49.727Z,96528.44
2023-03-18T10:26:42.385Z,96534.69
2023-03-18T10:29:13.462Z,96532.88
2023-03-18T10:32:06.103Z,96540.50
2023-03-18T10:34:57.083Z,96539.31
2023-03-18T10:37:51.796Z,96558.03
2023-03-18T10:40:20.410Z,96557.50
2023-03-18T10:42:50.546Z,96582.22
2023-03-18T10:45:25.409Z,96588.06
2023-03-18T10:48:15.980Z,96586.66
2023-03-18T10:50:50.180Z,96588.06
2023-03-18T10:53:23.535Z,96589.56
2023-03-18T10:56:13.797Z,96581.63
2023-03-18T10:58:42.250Z,96560.16
2023-03-18T11:01:13.271Z,96557.28
2023-03-18T11:03:50.405Z,96572.94
2023-03-18T11:06:25.356Z,96557.59
2023-03-18T11:09:02.942Z,96572.66
2023-03-18T11:11:33.451Z,96575.09
2023-03-18T11:14:02.438Z,96555.63
2023-03-18T11:17:08.938Z,96586.53
2023-03-18T11:19:47.897Z,96583.13
2023-03-18T11:22:24.600Z,96594.66
2023-03-18T11:25:13.870Z,96602.31
2023-03-18T11:27:43.365Z,96579.16
2023-03-18T11:30:33.927Z,96584.19
2023-03-18T11:33:14.273Z,96580.84
2023-03-18T11:35:52.471Z,96579.13
2023-03-18T11:38:29.290Z,96548.28
2023-03-18T11:41:23.358Z,96550.34
2023-03-18T11:44:02.681Z,96531.69
2023-03-18T11:46:47.729Z,96539.25
2023-03-18T11:49:17.906Z,96548.63
2023-03-18T11:52:23.134Z,96522.31
2023-03-18T11:55:23.152Z,96491.91
2023-03-18T11:58:31.397Z,96496.34
2023-03-18T12:01:17.692Z,96479.19
2023-03-18T12:04:05.930Z,96492.06
2023-03-18T12:06:46.177Z,96471.50
2023-03-18T12:09:30.436Z,96492.13
2023-03-18T12:12:30.601Z,96505.06
2023-03-18T12:15:15.715Z,96520.88
2023-03-18T12:17:49.398Z,96542.06
2023-03-18T12:20:29.275Z,96549.50
2023-03-18T12:23:07.879Z,96583.78
2023-03-18T12:26:02.639Z,96585.94
2023-03-18T12:28:34.090Z,96624.44
2023-03-18T12:31:17.242Z,96630.63
2023-03-18T12:34:04.259Z,96652.53
2023-03-18T12:36:44.481Z,96668.59
2023-03-18T12:39:32.344Z,96667.97
2023-03-18T12:42:09.473Z,96690.59
2023-03-18T12:44:36.619Z,96691.94
2023-03-18T12:47:37.447Z,96724.41
2023-03-18T12:50:16.385Z,96731.97
2023-03-18T12:52:44.170Z,96749.00
2023-03-18T12:55:41.207Z,96762.84
2023-03-18T12:58:17.758Z,96772.31
2023-03-18T13:00:49.026Z,96790.91
2023-03-18T13:03:36.329Z,96787.44
2023-03-18T13:06:15.652Z,96774.34
2023-03-18T13:08:47.198Z,96798.66
2023-03-18T13:11:46.067Z,96787.81
2023-03-18T13:14:37.146Z,96831.28
2023-03-18T13:17:10.342Z,96828.16
2023-03-18T13:19:39.136Z,96819.63
2023-03-18T13:22:13.512Z,96850.78
2023-03-18T13:24:40.058Z,96861.91
2023-03-18T13:27:09.695Z,96858.78
2023-03-18T13:30:13.207Z,96850.63
2023-03-18T13:32:49.810Z,96905.81
2023-03-18T13:35:23.221Z,96898.34
2023-03-18T13:38:03.566Z,96906.78
2023-03-18T13:40:58.086Z,96892.91
2023-03-18T13:43:27.829Z,96928.91
2023-03-18T13:45:57.426Z,96953.00
2023-03-18T13:48:40.767Z,96949.34
2023-03-18T13:51:25.389Z,96954.00
2023-03-18T13:54:05.065Z,96981.38
2023-03-18T13:56:45.158Z,96980.22
2023-03-18T13:59:33.260Z,97034.16
2023-03-18T14:02:25.645Z,97056.22
2023-03-18T14:04:53.300Z,97093.13
2023-03-18T14:07:22.298Z,97125.09
2023-03-18T14:10:08.342Z,97118.47
2023-03-18T14:12:46.099Z,97176.81
2023-03-18T14:15:15.737Z,97169.06
2023-03-18T14:18:03.633Z,97192.47
2023-03-18T14:20:42.200Z,97210.47
2023-03-18T14:23:22.266Z,97229.84
2023-03-18T14:26:03.912Z,97279.97
2023-03-18T14:28:45.664Z,97274.38
2023-03-18T14:31:21.310Z,97324.53
2023-03-18T14:34:23.922Z,97299.78
2023-03-18T14:36:53.297Z,97355.53
2023-03-18T14:39:49.098Z,97352.84
2023-03-18T14:42:50.733Z,97408.09
2023-03-18T14:45:34.510Z,97392.03
2023-03-18T14:48:11.666Z,97411.81
2023-03-18T14:50:47.243Z,97407.44
2023-03-18T14:53:35.657Z,97393.13
2023-03-18T14:56:04.123Z,97391.97
2023-03-18T14:58:30.917Z,97356.25
2023-03-18T15:01:13.280Z,97334.22
2023-03-18T15:03:44.783Z,97310.22
2023-03-18T15:06:22.976Z,97324.69
2023-03-18T15:08:58.036Z,97336.84
2023-03-18T15:11:26.109Z,97324.59
2023-03-18T15:14:00.082Z,97335.66
2023-03-18T15:16:32.941Z,97328.22
2023-03-18T15:19:00.295Z,97325.53
2023-03-18T15:21:32.478Z,97325.59
2023-03-18T15:24:09.454Z,97299.66
2023-03-18T15:26:41.412Z,97277.34
2023-03-18T15:29:35.413Z,97233.75
2023-03-18T15:32:17.357Z,97223.84
2023-03-18T15:34:47.210Z,97180.84
2023-03-18T15:37:33.778Z,97172.16
2023-03-18T15:40:23.719Z,97137.50
2023-03-18T15:42:50.878Z,97098.09
2023-03-18T15:45:21.523Z,97098.44
2023-03-18T15:47:48.599Z,97106.88
2023-03-18T15:50:26.354Z,97128.88
2023-03-18T15:53:03.908Z,97160.84
2023-03-18T15:55:48.629Z,97168.97
2023-03-18T15:58:25.000Z,97185.34
2023-03-18T16:00:52.834Z,97184.09
2023-03-18T16:03:25.206Z,97229.03
2023-03-18T16:05:53.383Z,97227.84
2023-03-18T16:08:21.156Z,97222.47
2023-03-18T16:10:50.131Z,97249.13
2023-03-18T16:13:23.442Z,97247.06
2023-03-18T16:15:51.143Z,97243.91
2023-03-18T16:18:18.248Z,97235.22
2023-03-18T16:20:47.087Z,97247.78
2023-03-18T16:23:17.902Z,97251.84
2023-03-18T16:25:48.386Z,97250.75
2023-03-18T16:28:27.733Z,97304.16
2023-03-18T16:30:56.195Z,97305.09
2023-03-18T16:33:24.845Z,97326.41
2023-03-18T16:35:58.692Z,97352.44
2023-03-18T16:38:28.043Z,97354.53
2023-03-18T16:40:56.024Z,97409.25
2023-03-18T16:43:29.046Z,97422.38
2023-03-18T16:46:00.560Z,97459.63
2023-03-18T16:48:28.426Z,97458.97
2023-03-18T16:50:57.438Z,97444.22
2023-03-18T16:53:27.215Z,97514.84
2023-03-18T16:56:00.224Z,97507.09
2023-03-18T16:58:33.894Z,97517.53
2023-03-18T17:01:00.924Z,97513.41
2023-03-18T17:03:29.335Z,97495.72
2023-03-18T17:05:57.434Z,97513.03
2023-03-18T17:08:24.492Z,97496.91
2023-03-18T17:10:56.823Z,97482.69
2023-03-18T17:13:27.325Z,97470.81
2023-03-18T17:15:56.186Z,97446.34
2023-03-18T17:18:24.619Z,97444.41
2023-03-18T17:20:52.175Z,97457.41
2023-03-18T17:23:21.775Z,97437.09
2023-03-18T17:25:52.385Z,97444.78
2023-03-18T17:28:33.000Z,97430.03
2023-03-18T17:31:00.084Z,97417.13
2023-03-18T17:33:32.270Z,97443.41
2023-03-18T17:36:00.521Z,97408.69
2023-03-18T17:38:29.214Z,97393.19
2023-03-18T17:40:56.704Z,97388.53
2023-03-18T17:43:27.862Z,97371.59
2023-03-18T17:45:56.611Z,97360.50
2023-03-18T17:48:25.676Z,97368.22
2023-03-18T17:51:27.521Z,97361.44
2023-03-18T17:53:59.131Z,97355.56
2023-03-18T17:56:27.856Z,97370.53
2023-03-18T17:58:56.305Z,97378.63
2023-03-18T18:01:27.183Z,97347.91
2023-03-18T18:03:59.113Z,97322.78
2023-03-18T18:06:29.314Z,97323.34
2023-03-18T18:09:01.004Z,97304.25
2023-03-18T18:11:39.739Z,97327.75
2023-03-18T18:14:21.205Z,97304.34
2023-03-18T18:16:50.076Z,97304.97
2023-03-18T18:19:17.193Z,97310.38
2023-03-18T18:21:46.511Z,97286.03
2023-03-18T18:24:20.493Z,97258.16
2023-03-18T18:26:47.136Z,97263.25
2023-03-18T18:29:19.322Z,97257.81
2023-03-18T18:31:48.380Z,97220.22
2023-03-18T18:34:16.034Z,97248.22
2023-03-18T18:36:43.128Z,97240.97
2023-03-18T18:39:10.923Z,97228.25
2023-03-18T18:41:38.917Z,97256.81
2023-03-18T18:44:07.025Z,97240.00
2023-03-18T18:46:34.967Z,97201.09
2023-03-18T18:49:01.779Z,97190.53
2023-03-18T18:51:29.082Z,97215.09
2023-03-18T18:53:56.060Z,97213.97
2023-03-18T18:56:34.279Z,97196.44
2023-03-18T18:59:03.045Z,97181.75
2023-03-18T19:01:31.080Z,97204.22
2023-03-18T19:03:57.862Z,97197.69
2023-03-18T19:06:31.363Z,97181.81
2023-03-18T19:09:04.061Z,97194.81
2023-03-18T19:11:30.762Z,97194.72
2023-03-18T19:14:20.054Z,97196.28
2023-03-18T19:16:49.340Z,97190.84
2023-03-18T19:19:20.426Z,97187.69
2023-03-18T19:21:47.927Z,97176.69
2023-03-18T19:24:28.519Z,97163.00
2023-03-18T19:26:58.511Z,97150.59
2023-03-18T19:29:27.483Z,97138.47
2023-03-18T19:31:54.916Z,97130.59
2023-03-18T19:34:22.171Z,97134.22
2023-03-18T19:36:53.135Z,97114.63
2023-03-18T19:39:22.131Z,97115.84
2023-03-18T19:41:49.080Z,97114.88
2023-03-18T19:44:21.093Z,97107.84
2023-03-18T19:46:50.778Z,97102.72
2023-03-18T19:49:24.791Z,97108.75
2023-03-18T19:51:52.222Z,97110.81
2023-03-18T19:54:33.731Z,97109.22
2023-03-18T19:57:04.249Z,97109.00
2023-03-18T19:59:39.886Z,97098.00
2023-03-18T20:02:30.551Z,97099.53
2023-03-18T20:04:59.784Z,97103.28
2023-03-18T20:07:29.437Z,97107.31
2023-03-18T20:09:56.455Z,97114.59
2023-03-18T20:12:34.777Z,97110.41
2023-03-18T20:15:01.462Z,97106.84
2023-03-18T20:17:41.567Z,97136.09
2023-03-18T20:20:14.461Z,97146.41
2023-03-18T20:22:48.207Z,97146.97
2023-03-18T20:25:28.709Z,97158.84
2023-03-18T20:27:57.167Z,97182.66
2023-03-18T20:30:25.655Z,97178.53
2023-03-18T20:32:53.631Z,97198.44
2023-03-18T20:35:21.376Z,97218.66
2023-03-18T20:37:49.747Z,97222.41
2023-03-18T20:40:23.318Z,97231.91
2023-03-18T20:42:51.707Z,97258.81
2023-03-18T20:45:19.196Z,97261.19
2023-03-18T20:47:46.685Z,97281.34
2023-03-18T20:50:19.369Z,97291.06
2023-03-18T20:52:47.876Z,97292.56
2023-03-18T20:55:26.944Z,97297.28
2023-03-18T20:57:55.690Z,97300.56
2023-03-18T21:00:26.326Z,97324.69
2023-03-18T21:02:55.210Z,97333.94
2023-03-18T21:05:22.245Z,97343.47
2023-03-18T21:07:49.087Z,97348.41
2023-03-18T21:10:21.792Z,97354.63
2023-03-18T21:12:49.803Z,97373.91
2023-03-18T21:15:27.115Z,97387.06
2023-03-18T21:17:54.312Z,97392.09
2023-03-18T21:20:27.245Z,97401.19
2023-03-18T21:22:54.716Z,97411.00
2023-03-18T21:25:24.469Z,97414.38
2023-03-18T21:27:53.006Z,97429.91
2023-03-18T21:30:22.039Z,97467.47
2023-03-18T21:32:51.818Z,97470.91
2023-03-18T21:35:24.872Z,97455.53
2023-03-18T21:37:53.651Z,97438.00
2023-03-18T21:40:25.070Z,97440.50
2023-03-18T21:42:53.359Z,97452.38
2023-03-18T21:45:22.893Z,97416.88
2023-03-18T21:47:50.942Z,97411.91
2023-03-18T21:50:24.121Z,97400.72
2023-03-18T21:52:53.346Z,97404.63
2023-03-18T21:55:21.649Z,97384.16
2023-03-18T21:57:49.186Z,97407.97
2023-03-18T22:00:19.284Z,97408.06
2023-03-18T22:02:46.852Z,97406.28
2023-03-18T22:05:22.918Z,97413.16
2023-03-18T22:07:50.868Z,97405.13
2023-03-18T22:10:23.292Z,97385.06
2023-03-18T22:12:50.527Z,97379.03
2023-03-18T22:15:24.106Z,97394.81
2023-03-18T22:17:51.778Z,97379.59
2023-03-18T22:20:20.868Z,97369.75
2023-03-18T22:22:48.691Z,97355.03
2023-03-18T22:25:29.451Z,97367.59
2023-03-18T22:27:58.037Z,97368.59
2023-03-18T22:30:29.395Z,97354.25
2023-03-18T22:32:57.042Z,97376.25
2023-03-18T22:35:26.793Z,97386.59
2023-03-18T22:37:54.316Z,97382.34
2023-03-18T22:40:28.023Z,97372.59
2023-03-18T22:43:00.413Z,97384.72
2023-03-18T22:45:34.433Z,97386.78
2023-03-18T22:48:03.205Z,97414.34
2023-03-18T22:50:33.692Z,97420.75
2023-03-18T22:53:05.626Z,97414.75
2023-03-18T22:55:35.742Z,97402.38
2023-03-18T22:58:02.899Z,97398.00
2023-03-18T23:00:37.472Z,97416.94
2023-03-18T23:03:11.441Z,97442.03
2023-03-18T23:05:39.549Z,97437.44
2023-03-18T23:08:06.595Z,97448.94
2023-03-18T23:10:33.583Z,97473.28
2023-03-18T23:13:01.494Z,97481.53
2023-03-18T23:15:29.492Z,97467.69
2023-03-18T23:17:56.088Z,97490.34
2023-03-18T23:20:22.720Z,97501.22
2023-03-18T23:22:49.312Z,97490.97
2023-03-18T23:25:17.941Z,97499.72
2023-03-18T23:27:45.482Z,97504.28
2023-03-18T23:30:14.629Z,97518.63
2023-03-18T23:32:41.734Z,97521.75
2023-03-18T23:35:10.573Z,97525.44
2023-03-18T23:37:37.172Z,97517.91
2023-03-18T23:40:05.655Z,97520.19
2023-03-18T23:42:32.367Z,97545.53
2023-03-18T23:44:58.998Z,97560.97
2023-03-18T23:47:25.805Z,97556.69
2023-03-18T23:49:53.667Z,97566.78
2023-03-18T23:52:20.571Z,97556.84
2023-03-18T23:54:48.382Z,97587.16
2023-03-18T23:57:14.986Z,97607.47
2023-03-18T23:59:42.565Z,97607.97
